createdAt,value
2023-08-16T00:01:51.556Z,100534.06
2023-08-16T00:04:19.060Z,100531.87
2023-08-16T00:06:47.133Z,100530.09
2023-08-16T00:09:17.215Z,100531.99
2023-08-16T00:11:44.642Z,100534.23
2023-08-16T00:14:12.441Z,100532.80
2023-08-16T00:16:40.184Z,100536.38
2023-08-16T00:19:07.973Z,100533.80
2023-08-16T00:21:35.640Z,100532.65
2023-08-16T00:24:05.751Z,100531.23
2023-08-16T00:26:33.324Z,100528.54
2023-08-16T00:29:01.395Z,100528.03
2023-08-16T00:31:28.978Z,100532.46
2023-08-16T00:33:56.532Z,100535.48
2023-08-16T00:36:24.408Z,100538.85
2023-08-16T00:38:51.838Z,100540.70
2023-08-16T00:41:20.536Z,100539.67
2023-08-16T00:43:48.125Z,100536.39
2023-08-16T00:46:15.852Z,100536.60
2023-08-16T00:48:43.899Z,100537.14
2023-08-16T00:51:11.954Z,100535.10
2023-08-16T00:53:40.230Z,100537.95
2023-08-16T00:56:12.295Z,100540.17
2023-08-16T00:58:39.863Z,100536.76
2023-08-16T01:01:08.470Z,100536.86
2023-08-16T01:03:36.031Z,100535.64
2023-08-16T01:06:05.011Z,100535.94
2023-08-16T01:08:33.364Z,100535.21
2023-08-16T01:11:11.296Z,100534.16
2023-08-16T01:13:58.878Z,100534.63
2023-08-16T01:16:27.793Z,100532.30
2023-08-16T01:18:55.377Z,100536.48
2023-08-16T01:21:23.212Z,100531.80
2023-08-16T01:24:07.634Z,100536.16
2023-08-16T01:26:37.959Z,100534.30
2023-08-16T01:29:07.393Z,100533.42
2023-08-16T01:31:35.129Z,100529.88
2023-08-16T01:34:02.706Z,100532.79
2023-08-16T01:36:30.238Z,100527.78
2023-08-16T01:38:58.296Z,100523.07
2023-08-16T01:41:34.909Z,100520.59
2023-08-16T01:44:02.570Z,100519.70
2023-08-16T01:46:30.139Z,100517.05
2023-08-16T01:48:58.843Z,100516.46
2023-08-16T01:51:26.584Z,100511.91
2023-08-16T01:53:54.739Z,100511.23
2023-08-16T01:56:22.369Z,100510.81
2023-08-16T01:58:50.108Z,100507.33
2023-08-16T02:01:17.619Z,100505.83
2023-08-16T02:03:45.189Z,100506.60
2023-08-16T02:06:12.982Z,100507.27
2023-08-16T02:08:40.651Z,100504.97
2023-08-16T02:11:08.140Z,100506.86
2023-08-16T02:13:35.548Z,100506.92
2023-08-16T02:16:03.562Z,100508.23
2023-08-16T02:18:31.477Z,100508.36
2023-08-16T02:20:58.979Z,100510.34
2023-08-16T02:23:26.455Z,100506.44
2023-08-16T02:25:54.535Z,100508.08
2023-08-16T02:28:21.982Z,100507.87
2023-08-16T02:30:49.424Z,100508.16
2023-08-16T02:33:16.958Z,100505.62
2023-08-16T02:35:44.811Z,100502.73
2023-08-16T02:38:12.874Z,100505.88
2023-08-16T02:40:40.527Z,100509.27
2023-08-16T02:43:07.923Z,100508.35
2023-08-16T02:45:36.989Z,100504.05
2023-08-16T02:48:05.127Z,100504.63
2023-08-16T02:50:32.564Z,100505.34
2023-08-16T02:53:00.196Z,100508.64
2023-08-16T02:55:27.764Z,100507.37
2023-08-16T02:57:55.323Z,100508.97
2023-08-16T03:00:24.360Z,100508.92
2023-08-16T03:02:51.858Z,100505.99
2023-08-16T03:05:19.694Z,100510.13
2023-08-16T03:07:47.329Z,100511.70
2023-08-16T03:10:14.808Z,100510.86
2023-08-16T03:12:42.657Z,100511.08
2023-08-16T03:15:10.750Z,100513.33
2023-08-16T03:17:38.244Z,100513.71
2023-08-16T03:20:09.105Z,100514.75
2023-08-16T03:22:36.613Z,100516.78
2023-08-16T03:25:05.152Z,100522.83
2023-08-16T03:27:32.661Z,100522.63
2023-08-16T03:30:00.740Z,100521.45
2023-08-16T03:32:28.564Z,100521.21
2023-08-16T03:34:56.182Z,100525.55
2023-08-16T03:37:24.589Z,100523.27
2023-08-16T03:39:53.548Z,100518.05
2023-08-16T03:42:21.122Z,100518.73
2023-08-16T03:44:48.688Z,100517.68
2023-08-16T03:47:16.134Z,100520.70
2023-08-16T03:49:46.678Z,100517.63
2023-08-16T03:52:14.859Z,100521.67
2023-08-16T03:54:42.317Z,100525.74
2023-08-16T03:57:12.199Z,100525.57
2023-08-16T03:59:39.605Z,100522.77
2023-08-16T04:02:07.086Z,100522.14
2023-08-16T04:04:34.571Z,100522.64
2023-08-16T04:07:02.611Z,100519.77
2023-08-16T04:09:30.094Z,100522.42
2023-08-16T04:11:58.036Z,100525.00
2023-08-16T04:14:27.316Z,100527.98
2023-08-16T04:16:57.242Z,100527.45
2023-08-16T13:10:55.870Z,100335.23
2023-08-16T13:16:08.946Z,100329.91
2023-08-16T13:23:52.972Z,100322.20
2023-08-16T13:26:37.377Z,100321.98
2023-08-16T13:32:00.701Z,100318.54
2023-08-16T13:36:57.391Z,100315.36
2023-08-16T13:39:28.164Z,100312.38
2023-08-16T13:47:00.848Z,100305.84
2023-08-16T13:49:28.640Z,100302.09
2023-08-16T13:51:56.478Z,100297.84
2023-08-16T13:54:24.053Z,100296.11
2023-08-16T13:56:51.451Z,100300.94
2023-08-16T13:59:19.120Z,100298.25
2023-08-16T14:01:46.636Z,100299.96
2023-08-16T14:04:14.900Z,100297.09
2023-08-16T14:06:43.068Z,100296.35
2023-08-16T14:09:10.606Z,100295.48
2023-08-16T14:11:38.238Z,100287.02
2023-08-16T14:14:05.621Z,100287.64
2023-08-16T14:16:33.774Z,100288.77
2023-08-16T14:19:02.464Z,100285.51
2023-08-16T14:21:30.027Z,100285.58
2023-08-16T14:23:58.100Z,100284.35
2023-08-16T14:26:25.668Z,100284.77
2023-08-16T14:28:53.230Z,100281.04
2023-08-16T14:31:20.896Z,100276.18
2023-08-16T14:33:48.256Z,100277.00
2023-08-16T14:36:15.823Z,100274.33
2023-08-16T14:38:50.569Z,100273.23
2023-08-16T14:41:25.929Z,100274.00
2023-08-16T14:43:53.405Z,100268.03
2023-08-16T14:46:20.879Z,100266.11
2023-08-16T14:48:48.341Z,100266.45
2023-08-16T14:51:15.846Z,100265.54
2023-08-16T14:53:43.517Z,100263.25
2023-08-16T14:56:13.020Z,100262.08
2023-08-16T14:58:41.116Z,100260.84
2023-08-16T15:01:10.218Z,100258.61
2023-08-16T15:03:38.808Z,100258.20
2023-08-16T15:06:07.399Z,100260.21
2023-08-16T15:08:38.829Z,100255.56
2023-08-16T15:11:17.424Z,100258.83
2023-08-16T15:13:45.621Z,100254.85
2023-08-16T15:16:14.449Z,100252.85
2023-08-16T15:18:42.190Z,100250.13
2023-08-16T15:21:09.758Z,100254.84
2023-08-16T15:23:38.367Z,100249.89
2023-08-16T15:26:06.748Z,100251.73
2023-08-16T15:28:34.945Z,100252.79
2023-08-16T15:31:03.190Z,100252.04
2023-08-16T15:33:31.215Z,100256.15
2023-08-16T15:35:58.798Z,100252.85
2023-08-16T15:38:40.965Z,100253.15
2023-08-16T15:41:08.696Z,100254.38
2023-08-16T15:43:38.112Z,100251.20
2023-08-16T15:46:06.950Z,100251.66
2023-08-16T15:48:34.627Z,100249.19
2023-08-16T15:51:03.433Z,100250.13
2023-08-16T15:53:31.277Z,100249.42
2023-08-16T15:55:58.859Z,100253.11
2023-08-16T15:58:27.333Z,100252.98
2023-08-16T16:00:56.409Z,100256.04
2023-08-16T16:03:24.205Z,100254.67
2023-08-16T16:05:51.747Z,100254.94
2023-08-16T16:08:19.495Z,100257.27
2023-08-16T16:10:49.743Z,100262.02
2023-08-16T16:13:17.750Z,100265.11
2023-08-16T16:15:45.485Z,100261.79
2023-08-16T16:18:13.149Z,100265.05
2023-08-16T16:20:40.811Z,100266.14
2023-08-16T16:23:08.240Z,100267.55
2023-08-16T16:25:35.618Z,100273.29
2023-08-16T16:28:03.244Z,100274.96
2023-08-16T16:30:31.152Z,100271.04
2023-08-16T16:32:58.683Z,100275.41
2023-08-16T16:35:26.458Z,100276.77
2023-08-16T16:37:54.085Z,100276.91
2023-08-16T16:40:21.716Z,100274.73
2023-08-16T16:42:49.278Z,100275.64
2023-08-16T16:45:16.683Z,100276.35
2023-08-16T16:47:44.519Z,100281.67
2023-08-16T16:50:12.183Z,100278.23
2023-08-16T16:52:39.629Z,100285.16
2023-08-16T16:55:08.261Z,100281.95
2023-08-16T16:57:35.673Z,100281.81
2023-08-16T17:00:07.148Z,100278.96
2023-08-16T17:02:34.925Z,100286.23
2023-08-16T17:05:02.480Z,100282.80
2023-08-16T17:07:30.092Z,100284.02
2023-08-16T17:09:57.562Z,100284.86
2023-08-16T17:12:25.099Z,100284.26
2023-08-16T17:14:52.916Z,100288.13
2023-08-16T17:17:20.430Z,100291.55
2023-08-16T17:19:47.900Z,100293.59
2023-08-16T17:22:15.290Z,100296.20
2023-08-16T17:24:42.806Z,100296.31
2023-08-16T17:27:10.368Z,100295.87
2023-08-16T17:29:37.765Z,100296.88
2023-08-16T17:32:05.338Z,100297.47
2023-08-16T17:34:32.880Z,100299.69
2023-08-16T17:37:00.515Z,100300.25
2023-08-16T17:39:28.019Z,100303.55
2023-08-16T17:41:55.424Z,100303.27
2023-08-16T17:44:22.869Z,100305.92
2023-08-16T17:46:50.294Z,100303.95
2023-08-16T17:49:18.032Z,100305.45
2023-08-16T17:51:46.113Z,100307.84
2023-08-16T17:54:14.762Z,100305.52
2023-08-16T17:56:42.276Z,100304.98
2023-08-16T17:59:09.760Z,100299.52
2023-08-16T18:01:37.165Z,100297.36
2023-08-16T18:04:05.156Z,100298.89
2023-08-16T18:06:32.626Z,100299.61
2023-08-16T18:09:00.092Z,100301.36
2023-08-16T18:11:27.590Z,100302.17
2023-08-16T18:13:55.243Z,100300.27
2023-08-16T18:16:22.694Z,100299.45
2023-08-16T18:18:50.114Z,100300.27
2023-08-16T18:21:17.674Z,100295.40
2023-08-16T18:23:45.339Z,100296.54
2023-08-16T18:26:12.946Z,100296.05
2023-08-16T18:28:40.526Z,100294.64
2023-08-16T18:31:09.151Z,100292.55
2023-08-16T18:33:36.693Z,100291.96
2023-08-16T18:36:06.176Z,100290.11
2023-08-16T18:38:33.663Z,100284.90
2023-08-16T18:41:06.324Z,100291.54
2023-08-16T18:43:33.806Z,100288.04
2023-08-16T18:46:01.235Z,100286.60
2023-08-16T18:48:28.674Z,100289.57
2023-08-16T18:50:56.305Z,100290.84
2023-08-16T18:53:23.780Z,100290.02
2023-08-16T18:55:51.329Z,100291.69
2023-08-16T18:58:18.766Z,100290.06
2023-08-16T19:00:48.197Z,100289.20
2023-08-16T19:03:16.137Z,100287.59
2023-08-16T19:05:44.551Z,100285.69
2023-08-16T19:08:14.042Z,100287.83
2023-08-16T19:10:43.663Z,100288.77
2023-08-16T19:13:11.440Z,100289.36
2023-08-16T19:15:38.912Z,100289.39
2023-08-16T19:18:06.439Z,100291.36
2023-08-16T19:20:35.926Z,100295.62
2023-08-16T19:23:04.872Z,100291.77
2023-08-16T19:25:32.408Z,100289.95
2023-08-16T19:27:59.983Z,100288.67
2023-08-16T19:30:27.521Z,100289.83
2023-08-16T19:32:55.203Z,100290.16
2023-08-16T19:35:22.944Z,100289.56
2023-08-16T19:37:50.428Z,100294.58
2023-08-16T19:40:17.875Z,100292.20
2023-08-16T19:42:45.477Z,100292.02
2023-08-16T19:45:12.930Z,100291.38
2023-08-16T19:47:40.456Z,100290.21
2023-08-16T19:50:19.913Z,100290.58
2023-08-16T19:52:56.617Z,100291.11
2023-08-16T19:55:24.088Z,100292.74
2023-08-16T19:57:52.141Z,100292.52
2023-08-16T20:00:20.667Z,100294.64
2023-08-16T20:02:48.465Z,100298.20
2023-08-16T20:05:16.101Z,100296.04
2023-08-16T20:07:43.486Z,100296.50
2023-08-16T20:10:14.154Z,100294.61
2023-08-16T20:12:41.920Z,100294.56
2023-08-16T20:15:10.171Z,100295.63
2023-08-16T20:17:37.783Z,100298.55
2023-08-16T20:20:07.757Z,100296.20
2023-08-16T20:22:38.125Z,100299.73
2023-08-16T20:25:07.296Z,100299.73
2023-08-16T20:27:34.900Z,100299.17
2023-08-16T20:30:02.466Z,100302.02
2023-08-16T20:32:29.942Z,100300.30
2023-08-16T20:34:58.523Z,100293.74
2023-08-16T20:37:27.006Z,100290.15
2023-08-16T20:39:54.654Z,100293.05
2023-08-16T20:42:35.971Z,100294.20
2023-08-16T20:45:05.006Z,100290.28
2023-08-16T20:47:32.609Z,100289.74
2023-08-16T20:50:00.406Z,100286.54
2023-08-16T20:52:27.944Z,100286.69
2023-08-16T20:54:58.265Z,100282.98
2023-08-16T20:57:25.911Z,100288.23
2023-08-16T20:59:53.724Z,100286.46
2023-08-16T21:02:21.242Z,100283.53
2023-08-16T21:04:48.710Z,100286.08
2023-08-16T21:07:16.414Z,100288.36
2023-08-16T21:09:43.833Z,100284.84
2023-08-16T21:12:11.532Z,100285.69
2023-08-16T21:14:40.425Z,100289.80
2023-08-16T21:17:08.625Z,100286.15
2023-08-16T21:19:36.101Z,100283.95
2023-08-16T21:22:04.464Z,100285.66
2023-08-16T21:24:31.921Z,100283.95
2023-08-16T21:27:00.146Z,100284.38
2023-08-16T21:29:27.559Z,100283.13
2023-08-16T21:31:55.098Z,100281.98
2023-08-16T21:34:23.531Z,100278.95
2023-08-16T21:36:50.996Z,100277.06
2023-08-16T21:39:18.641Z,100275.90
2023-08-16T21:41:46.028Z,100274.94
2023-08-16T21:44:13.457Z,100273.31
2023-08-16T21:46:42.584Z,100271.38
2023-08-16T21:49:10.231Z,100271.06
2023-08-16T21:51:38.199Z,100271.45
2023-08-16T21:54:06.221Z,100269.52
2023-08-16T21:56:33.649Z,100270.34
2023-08-16T21:59:01.035Z,100270.89
2023-08-16T22:01:28.493Z,100264.00
2023-08-16T22:03:56.468Z,100264.30
2023-08-16T22:06:24.101Z,100261.02
2023-08-16T22:08:52.105Z,100262.70
2023-08-16T22:11:19.639Z,100260.23
2023-08-16T22:13:47.933Z,100261.91
2023-08-16T22:16:15.902Z,100258.13
2023-08-16T22:18:43.292Z,100260.70
2023-08-16T22:21:11.289Z,100261.52
2023-08-16T22:23:38.906Z,100263.82
2023-08-16T22:26:07.874Z,100265.88
2023-08-16T22:28:35.468Z,100259.66
2023-08-16T22:31:03.350Z,100262.86
2023-08-16T22:33:30.906Z,100269.47
2023-08-16T22:35:58.352Z,100267.45
2023-08-16T22:38:26.038Z,100261.48
2023-08-16T22:40:53.627Z,100264.22
2023-08-16T22:43:21.117Z,100263.05
2023-08-16T22:45:48.542Z,100266.80
2023-08-16T22:48:15.989Z,100262.67
2023-08-16T22:50:43.551Z,100267.34
2023-08-16T22:53:10.949Z,100266.20
2023-08-16T22:55:38.471Z,100264.20
2023-08-16T22:58:05.933Z,100266.14
2023-08-16T23:00:33.734Z,100263.06
2023-08-16T23:03:01.657Z,100259.56
2023-08-16T23:05:29.039Z,100263.42
2023-08-16T23:07:56.422Z,100263.39
2023-08-16T23:10:23.856Z,100263.68
2023-08-16T23:12:51.238Z,100261.16
2023-08-16T23:15:18.707Z,100264.91
2023-08-16T23:17:46.104Z,100266.42
2023-08-16T23:20:13.521Z,100265.13
2023-08-16T23:22:41.889Z,100264.73
2023-08-16T23:25:09.895Z,100264.95
2023-08-16T23:27:38.140Z,100265.41
2023-08-16T23:30:06.538Z,100266.92
2023-08-16T23:32:34.043Z,100264.90
2023-08-16T23:35:02.474Z,100262.15
2023-08-16T23:37:29.938Z,100260.80
2023-08-16T23:39:57.321Z,100260.51
2023-08-16T23:42:25.289Z,100263.08
2023-08-16T23:44:52.746Z,100261.64
2023-08-16T23:47:20.151Z,100258.62
2023-08-16T23:49:47.765Z,100262.86
2023-08-16T23:52:15.199Z,100267.39
2023-08-16T23:54:42.689Z,100271.00
2023-08-16T23:57:10.520Z,100266.66
2023-08-16T23:59:40.689Z,100262.30
